Airport Name : Campbell AAF

Other Name : Campbell AAF

ICAO : KHOP

IATA : HOP

FAA : HOP

Latitude : 36.668567

Longitude : -87.496183

Country : United States

Local Date and Time : 2/24/2018 10:04:00 AM

 

TAF (Terminal Aerodrome Forecast)

TAF AMD KHOP 241447Z 2414/2514 08006KT 9000 -RA BR OVC010 510203 QNH2998INS TEMPO 2414/2418 OVC006 BECMG 2417/2418 19012KT 8000 -SHRA OVC005 510103 QNH2981INS TEMPO 2418/2421 22025G35KT 4800 -TSRA OVC012CB BECMG 2501/2502 17012KT 9000 -SHRA OVC010 520104 QNH2977INS TEMPO 2503/2505 23035G45KT 3200 -TSRA OVC007CB BECMG 2505/2506 27015G25KT 8000 -RA BKN007 OVC015 510154 QNH2977INS BECMG 2507/2508 29015KT 9999 NSW SCT015 BKN075 510302 QNH2986INS BECMG 2511/2512 31009KT 9999 SCT200 510402 QNH3004INS TX22/2419Z TN16/2414Z

 

METAR (METeorological Aerodrome Report)

KHOP 241556Z AUTO 20012KT 10SM SCT015 BKN140 20/19 A3001 RMK AO2 SLP162 T02000185

KHOP 241552Z AUTO 21013KT 10SM SCT015 20/19 A3001 RMK AO2 SLP162

KHOP 241536Z AUTO 20011KT 10SM BKN014 19/19 A3001 RMK AO2 SLP162

KHOP 241531Z AUTO 21012KT 10SM OVC015 19/19 A3001 RMK AO2 SLP162

KHOP 241456Z AUTO 21013KT 10SM OVC011 19/19 A3002 RMK AO2 SLP165 60000 T01850185 55000

KHOP 241411Z AUTO 20007KT 10SM OVC012 17/17 A3003 RMK AO2 SLP169

KHOP 241405Z AUTO 19006KT 10SM BKN009 OVC014 16/16 A3002 RMK AO2 BKN V OVC SLP166

KHOP 241403Z AUTO 19006KT 10SM OVC010 16/16 A3002 RMK AO2 CIG 008V010 SLP166

KHOP 241359Z AUTO 17005KT 10SM FEW003 BKN009 OVC013 16/16 A3002 RMK AO2 CIG 008V010 SLP166

KHOP 241356Z AUTO 18006KT 10SM FEW003 OVC010 16/16 A3002 RMK AO2 CIG 008V010 SLP166 T01600160

KHOP 241355Z AUTO 18007KT 10SM SCT005 OVC010 16/16 A3002 RMK AO2 CIG 003V010 SLP166

KHOP 241347Z AUTO 18006KT 10SM SCT003 OVC008 16/16 A3002 RMK AO2 CIG 003V008 SLP166

KHOP 241331Z AUTO 17005KT 10SM OVC003 15/15 A3002 RMK AO2 SLP166

KHOP 241321Z AUTO 17005KT 10SM OVC004 15/15 A3002 RMK AO2 SLP166

KHOP 241256Z AUTO 16006KT 7SM OVC003 15/15 A3002 RMK AO2 DZB11E20 SLP166 P0000 T01480148

KHOP 241239Z AUTO 12004KT 3SM BR OVC003 14/14 A3002 RMK AO2 DZB11E20 SLP166

KHOP 241225Z AUTO 12003KT 2 3/4SM BR OVC003 14/14 A3002 RMK AO2 VIS 2 3/4V4 DZB11E20 SLP166

KHOP 241220Z AUTO 11003KT 3SM BR OVC003 14/14 A3002 RMK AO2 DZB11E20 SLP166

KHOP 241211Z AUTO 09003KT 7SM -DZ OVC003 14/14 A3002 RMK AO2 DZB11 SLP166